Time;durP1;ratioP1;P1;durP2;ratioP2;P2;SDS_P1;SDS_P2;PMS_P1;PMS_P2;Temp;Humidity;BMP_temperature;BMP_pressure;BME280_temperature;BME280_humidity;BME280_pressure;Samples;Min_cycle;Max_cycle;Signal;HPM_P1;HPM_P2
2023/08/23 00:02:22;;;;;;;2.20;1.80;;;21.00;80.60;;;;;;5075665;28;20799;-59
2023/08/23 00:04:50;;;;;;;7.33;2.20;;;20.90;80.60;;;;;;5075414;28;20859;-60
2023/08/23 00:07:17;;;;;;;2.20;1.70;;;20.90;80.70;;;;;;5075715;28;20444;-60
2023/08/23 00:09:44;;;;;;;3.33;2.00;;;20.90;81.40;;;;;;5075610;28;20445;-60
2023/08/23 00:12:11;;;;;;;5.37;1.67;;;20.90;81.50;;;;;;5075220;28;20460;-60
2023/08/23 00:14:38;;;;;;;6.40;1.90;;;20.90;81.60;;;;;;5075078;28;21006;-60
2023/08/23 00:17:05;;;;;;;5.97;2.50;;;20.90;82.00;;;;;;5075464;28;20444;-60
2023/08/23 00:19:31;;;;;;;3.77;1.90;;;20.90;82.50;;;;;;5075385;28;20448;-60
2023/08/23 00:22:00;;;;;;;2.90;1.50;;;20.90;81.70;;;;;;5074993;28;20483;-59
2023/08/23 00:24:26;;;;;;;3.47;2.17;;;20.80;82.10;;;;;;5075276;28;20434;-60
2023/08/23 00:26:55;;;;;;;3.53;2.20;;;20.80;82.10;;;;;;5075080;28;20441;-60
2023/08/23 00:29:22;;;;;;;5.03;2.00;;;20.80;82.30;;;;;;5075250;28;20814;-60
2023/08/23 00:31:48;;;;;;;3.47;2.23;;;20.80;82.30;;;;;;5075060;28;20473;-59
2023/08/23 00:34:15;;;;;;;3.37;1.97;;;20.70;82.40;;;;;;5075029;28;20486;-60
2023/08/23 00:36:42;;;;;;;4.07;1.90;;;20.70;82.20;;;;;;5075093;28;20440;-60
2023/08/23 00:39:10;;;;;;;3.20;1.97;;;20.60;82.40;;;;;;5074773;28;20535;-60
2023/08/23 00:41:37;;;;;;;5.63;2.17;;;20.60;82.60;;;;;;5074885;28;20465;-60
2023/08/23 00:44:04;;;;;;;4.27;2.00;;;20.60;83.20;;;;;;5075000;28;20441;-60
2023/08/23 00:46:31;;;;;;;4.30;1.70;;;20.60;83.60;;;;;;5074857;28;20468;-60
2023/08/23 00:48:58;;;;;;;3.53;1.90;;;20.50;83.10;;;;;;5074552;28;20969;-60
2023/08/23 00:51:24;;;;;;;4.20;1.70;;;20.40;82.70;;;;;;5074463;28;20475;-59
2023/08/23 00:53:51;;;;;;;7.03;2.37;;;20.40;83.40;;;;;;5074692;28;20480;-60
2023/08/23 00:56:19;;;;;;;3.43;1.60;;;20.40;83.70;;;;;;5074657;28;20457;-60
2023/08/23 00:58:46;;;;;;;4.10;1.83;;;20.40;83.50;;;;;;5074468;28;20448;-59
2023/08/23 01:01:12;;;;;;;2.90;1.90;;;20.50;83.40;;;;;;5074429;28;20461;-59
2023/08/23 01:03:39;;;;;;;4.33;1.70;;;20.50;84.40;;;;;;5074533;28;20440;-59
2023/08/23 01:06:18;;;;;;;4.23;2.10;;;20.50;83.60;;;;;;5074485;28;20444;-59
2023/08/23 01:08:51;;;;;;;3.97;1.83;;;20.40;83.60;;;;;;5074475;28;20424;-59
2023/08/23 01:11:28;;;;;;;5.80;1.83;;;20.40;84.20;;;;;;5074293;28;20461;-60
2023/08/23 01:14:00;;;;;;;2.70;1.90;;;20.40;84.00;;;;;;5074235;28;20468;-59
2023/08/23 01:16:27;;;;;;;5.97;1.90;;;20.40;84.10;;;;;;5074235;28;20429;-60
2023/08/23 01:18:55;;;;;;;7.33;2.37;;;20.40;84.10;;;;;;5073833;28;20942;-59
2023/08/23 01:21:32;;;;;;;4.97;2.70;;;20.40;84.60;;;;;;5073893;28;20473;-59
2023/08/23 01:24:08;;;;;;;3.83;2.57;;;20.40;84.60;;;;;;5074163;28;20428;-60
2023/08/23 01:26:35;;;;;;;4.27;2.17;;;20.40;84.90;;;;;;5074545;28;20464;-59
2023/08/23 01:29:01;;;;;;;8.67;2.10;;;20.30;84.80;;;;;;5074095;28;20445;-60
2023/08/23 01:31:32;;;;;;;8.80;2.70;;;20.30;85.10;;;;;;5073658;28;20975;-59
2023/08/23 01:34:09;;;;;;;4.03;2.30;;;20.20;85.10;;;;;;5073639;28;20514;-59
2023/08/23 01:36:37;;;;;;;8.27;2.13;;;20.20;85.30;;;;;;5074404;28;20432;-59
2023/08/23 01:39:06;;;;;;;5.20;2.37;;;20.20;85.20;;;;;;5073532;28;20866;-59
2023/08/23 01:41:33;;;;;;;3.07;1.63;;;20.10;85.00;;;;;;5073714;28;20461;-59
2023/08/23 01:44:00;;;;;;;8.50;2.67;;;20.10;85.60;;;;;;5073665;28;20820;-60
2023/08/23 01:46:28;;;;;;;3.00;1.83;;;20.10;85.80;;;;;;5073368;28;20444;-59
2023/08/23 01:48:55;;;;;;;4.43;2.00;;;20.00;85.60;;;;;;5073753;28;20440;-60
2023/08/23 01:51:22;;;;;;;2.73;2.00;;;20.00;85.80;;;;;;5072940;28;20465;-59
2023/08/23 01:53:48;;;;;;;3.83;2.03;;;19.90;85.70;;;;;;5073274;28;20935;-60
2023/08/23 01:56:16;;;;;;;14.17;2.57;;;20.00;86.30;;;;;;5073298;28;21052;-59
2023/08/23 01:58:45;;;;;;;4.20;2.07;;;19.90;86.00;;;;;;5073523;28;20448;-60
2023/08/23 02:01:12;;;;;;;4.00;1.50;;;19.90;86.40;;;;;;5073608;28;20551;-58
2023/08/23 02:03:39;;;;;;;3.77;2.20;;;19.90;86.00;;;;;;5073124;28;20445;-58
2023/08/23 02:06:05;;;;;;;6.33;1.80;;;19.90;86.00;;;;;;5073262;28;20943;-59
2023/08/23 02:08:32;;;;;;;5.10;2.33;;;19.80;85.70;;;;;;5073931;28;20444;-58
2023/08/23 02:10:59;;;;;;;4.10;2.07;;;19.80;86.30;;;;;;5074540;28;20468;-58
2023/08/23 02:13:27;;;;;;;5.37;2.57;;;19.70;86.40;;;;;;5073848;28;20950;-58
2023/08/23 02:15:54;;;;;;;6.67;2.80;;;19.70;86.40;;;;;;5073753;28;20488;-58
2023/08/23 02:18:21;;;;;;;3.83;2.30;;;19.70;86.60;;;;;;5073929;28;20441;-58
2023/08/23 02:20:55;;;;;;;10.67;2.17;;;19.70;86.80;;;;;;5073505;28;20905;-58
2023/08/23 02:23:22;;;;;;;7.93;2.27;;;19.60;87.20;;;;;;5074232;28;20421;-59
2023/08/23 02:25:48;;;;;;;8.03;2.27;;;19.60;86.90;;;;;;5073548;28;20440;-59
2023/08/23 02:28:15;;;;;;;5.97;2.53;;;19.70;87.20;;;;;;5073499;28;20445;-59
2023/08/23 02:30:43;;;;;;;5.57;2.67;;;19.60;87.10;;;;;;5073385;28;20444;-59
2023/08/23 02:33:10;;;;;;;6.57;2.63;;;19.60;87.00;;;;;;5073180;28;20918;-59
2023/08/23 02:35:40;;;;;;;7.20;2.30;;;19.60;86.70;;;;;;5073531;28;20530;-59
2023/08/23 02:38:08;;;;;;;9.40;2.60;;;19.60;86.90;;;;;;5073141;28;20805;-59
2023/08/23 02:40:35;;;;;;;6.03;2.83;;;19.60;87.10;;;;;;5073134;28;20454;-58
2023/08/23 02:43:01;;;;;;;6.43;2.37;;;19.60;87.20;;;;;;5073212;28;20535;-59
2023/08/23 02:45:28;;;;;;;6.33;2.43;;;19.60;87.50;;;;;;5073108;28;20665;-59
2023/08/23 02:47:56;;;;;;;4.87;2.10;;;19.60;87.60;;;;;;5073102;28;20449;-59
2023/08/23 02:50:23;;;;;;;5.60;2.80;;;19.60;87.90;;;;;;5073144;28;20451;-59
2023/08/23 02:52:49;;;;;;;8.20;2.53;;;19.50;87.80;;;;;;5073007;28;20456;-58
2023/08/23 02:55:16;;;;;;;4.80;2.40;;;19.50;88.00;;;;;;5072975;28;20582;-58
2023/08/23 02:57:45;;;;;;;6.47;2.20;;;19.50;88.20;;;;;;5073023;28;20451;-59
2023/08/23 03:00:13;;;;;;;6.23;2.30;;;19.50;88.10;;;;;;5072970;28;20453;-59
2023/08/23 03:02:40;;;;;;;6.27;1.90;;;19.40;87.80;;;;;;5074965;28;20468;-59
2023/08/23 03:05:08;;;;;;;5.83;2.20;;;19.40;87.80;;;;;;5077024;28;20448;-59
2023/08/23 03:07:35;;;;;;;4.70;2.27;;;19.40;88.00;;;;;;5076655;28;20440;-59
2023/08/23 03:10:02;;;;;;;6.90;2.17;;;19.40;88.00;;;;;;5076837;28;20449;-58
2023/08/23 03:12:29;;;;;;;9.00;3.27;;;19.40;88.00;;;;;;5076665;28;20466;-59
2023/08/23 03:14:56;;;;;;;11.77;2.60;;;19.30;87.90;;;;;;5076513;28;20858;-59
2023/08/23 03:17:22;;;;;;;10.03;2.90;;;19.30;88.10;;;;;;5076602;28;20429;-59
2023/08/23 03:19:49;;;;;;;10.90;3.60;;;19.30;88.30;;;;;;5076806;28;20449;-59
2023/08/23 03:22:17;;;;;;;5.13;3.03;;;19.20;89.10;;;;;;5076073;28;21005;-59
2023/08/23 03:24:44;;;;;;;6.47;3.07;;;19.20;88.10;;;;;;5076922;28;20440;-59
2023/08/23 03:27:10;;;;;;;11.20;2.77;;;19.10;88.20;;;;;;5076521;28;20452;-59
2023/08/23 03:29:37;;;;;;;14.60;3.00;;;19.10;88.70;;;;;;5076454;28;20445;-59
2023/08/23 03:32:04;;;;;;;7.80;3.07;;;19.10;88.70;;;;;;5076184;28;20464;-59
2023/08/23 03:34:31;;;;;;;10.73;3.50;;;19.10;89.00;;;;;;5076300;28;20484;-59
2023/08/23 03:37:00;;;;;;;15.47;4.40;;;19.10;88.70;;;;;;5076135;28;20535;-59
2023/08/23 03:39:27;;;;;;;10.33;2.60;;;19.00;88.90;;;;;;5076181;28;20449;-59
2023/08/23 03:41:54;;;;;;;12.67;3.33;;;19.00;89.10;;;;;;5076109;28;20539;-59
2023/08/23 03:44:21;;;;;;;8.03;2.57;;;19.00;89.40;;;;;;5076099;28;20448;-59
2023/08/23 03:46:47;;;;;;;5.90;2.93;;;18.90;89.10;;;;;;5076045;28;20451;-59
2023/08/23 03:49:14;;;;;;;8.07;2.53;;;19.00;89.30;;;;;;5075688;28;20448;-59
2023/08/23 03:51:41;;;;;;;8.77;2.47;;;19.00;89.00;;;;;;5076143;28;20460;-59
2023/08/23 03:54:07;;;;;;;13.53;3.17;;;18.90;88.90;;;;;;5075973;28;20464;-59
2023/08/23 03:56:35;;;;;;;9.80;3.03;;;18.90;89.00;;;;;;5075801;28;20513;-59
2023/08/23 03:59:02;;;;;;;11.00;3.20;;;18.90;89.40;;;;;;5075823;28;20445;-59
2023/08/23 04:01:29;;;;;;;11.47;3.63;;;18.90;90.20;;;;;;5075634;28;20465;-59
2023/08/23 04:03:55;;;;;;;8.90;3.40;;;18.90;89.60;;;;;;5075681;28;20445;-59
2023/08/23 04:06:22;;;;;;;10.53;2.90;;;18.90;90.00;;;;;;5075655;28;20440;-59
2023/08/23 04:08:49;;;;;;;10.83;3.20;;;18.80;89.70;;;;;;5075708;28;20452;-59
2023/08/23 04:11:15;;;;;;;10.47;2.97;;;18.80;89.60;;;;;;5075564;28;20461;-59
2023/08/23 04:13:43;;;;;;;10.20;2.23;;;18.70;89.80;;;;;;5074933;28;20456;-59
2023/08/23 04:16:12;;;;;;;11.03;3.03;;;18.70;89.90;;;;;;5076165;28;20484;-59
2023/08/23 04:18:39;;;;;;;16.77;3.10;;;18.70;89.90;;;;;;5075617;28;20511;-59
2023/08/23 04:21:06;;;;;;;11.67;3.00;;;18.60;89.80;;;;;;5075385;28;20472;-58
2023/08/23 04:23:32;;;;;;;9.23;2.53;;;18.60;90.10;;;;;;5075630;28;20425;-59
2023/08/23 04:25:59;;;;;;;7.23;2.47;;;18.50;90.00;;;;;;5075511;28;20448;-59
2023/08/23 04:28:26;;;;;;;12.50;3.27;;;18.50;89.80;;;;;;5075395;28;20468;-59
2023/08/23 04:30:59;;;;;;;16.47;2.77;;;18.50;89.90;;;;;;5075265;28;20465;-58
2023/08/23 04:33:26;;;;;;;13.77;3.27;;;18.50;90.00;;;;;;5075051;28;20890;-58
2023/08/23 04:35:53;;;;;;;11.97;2.90;;;18.50;90.10;;;;;;5075118;28;20484;-58
2023/08/23 04:38:19;;;;;;;12.87;2.70;;;18.50;90.10;;;;;;5075290;28;20438;-58
2023/08/23 04:40:46;;;;;;;7.40;2.77;;;18.50;90.10;;;;;;5075516;28;20790;-59
2023/08/23 04:43:13;;;;;;;8.43;2.97;;;18.50;90.10;;;;;;5075070;28;20445;-58
2023/08/23 04:45:40;;;;;;;10.80;3.00;;;18.50;90.10;;;;;;5075013;28;20447;-58
2023/08/23 04:48:08;;;;;;;7.80;2.40;;;18.50;90.30;;;;;;5074997;28;20440;-58
2023/08/23 04:50:35;;;;;;;9.37;3.17;;;18.50;90.50;;;;;;5074477;28;20942;-58
2023/08/23 04:53:02;;;;;;;6.13;2.40;;;18.50;90.50;;;;;;5074575;28;20802;-58
2023/08/23 04:55:28;;;;;;;8.70;3.13;;;18.50;90.60;;;;;;5074737;28;20480;-59
2023/08/23 04:57:55;;;;;;;7.93;3.10;;;18.50;90.60;;;;;;5074822;28;20456;-58
2023/08/23 05:00:22;;;;;;;11.57;2.83;;;18.50;90.50;;;;;;5074711;28;20445;-59
2023/08/23 05:02:49;;;;;;;7.20;2.97;;;18.50;90.60;;;;;;5074187;28;21013;-59
2023/08/23 05:05:17;;;;;;;10.43;2.87;;;18.50;90.50;;;;;;5074558;28;20488;-58
2023/08/23 05:07:43;;;;;;;7.30;2.87;;;18.40;90.70;;;;;;5074572;28;20452;-58
2023/08/23 05:10:10;;;;;;;8.80;3.57;;;18.50;90.90;;;;;;5074558;28;20437;-58
2023/08/23 05:12:37;;;;;;;13.37;3.47;;;18.40;90.80;;;;;;5074441;28;20493;-58
2023/08/23 05:15:05;;;;;;;8.53;3.53;;;18.40;90.80;;;;;;5074331;28;20481;-59
2023/08/23 05:17:31;;;;;;;11.77;3.53;;;18.40;90.90;;;;;;5074443;28;20465;-58
2023/08/23 05:19:58;;;;;;;16.47;3.30;;;18.40;91.10;;;;;;5074311;28;20441;-58
2023/08/23 05:22:26;;;;;;;14.03;3.33;;;18.40;91.10;;;;;;5073868;28;20542;-59
2023/08/23 05:24:53;;;;;;;19.30;3.57;;;18.40;91.20;;;;;;5073900;28;20449;-58
2023/08/23 05:27:19;;;;;;;12.67;3.90;;;18.40;91.30;;;;;;5073701;28;20445;-59
2023/08/23 05:29:46;;;;;;;14.10;3.23;;;18.40;91.40;;;;;;5074167;28;20445;-59
2023/08/23 05:32:12;;;;;;;17.43;3.47;;;18.50;91.50;;;;;;5074016;28;20465;-58
2023/08/23 05:34:40;;;;;;;16.10;4.00;;;18.60;91.60;;;;;;5074115;28;20793;-59
2023/08/23 05:37:07;;;;;;;14.10;3.90;;;18.50;91.60;;;;;;5074829;28;20480;-59
2023/08/23 05:39:35;;;;;;;9.13;3.77;;;18.60;92.20;;;;;;5074831;28;20467;-58
2023/08/23 05:42:02;;;;;;;14.00;3.50;;;18.60;91.90;;;;;;5074409;28;20460;-58
2023/08/23 05:44:28;;;;;;;23.77;3.73;;;18.70;92.10;;;;;;5074269;28;20444;-58
2023/08/23 05:46:55;;;;;;;12.23;3.20;;;18.70;92.20;;;;;;5074182;28;20444;-58
2023/08/23 05:49:22;;;;;;;15.30;3.70;;;18.70;92.20;;;;;;5074076;28;20445;-58
2023/08/23 05:51:50;;;;;;;10.80;3.93;;;18.80;92.40;;;;;;5073972;28;20468;-58
2023/08/23 05:54:16;;;;;;;16.13;3.90;;;18.80;92.60;;;;;;5073785;28;20499;-58
2023/08/23 05:56:44;;;;;;;7.87;3.47;;;18.80;92.80;;;;;;5073731;28;20484;-58
2023/08/23 05:59:11;;;;;;;16.07;3.90;;;18.90;93.10;;;;;;5073802;28;20440;-59
2023/08/23 06:01:38;;;;;;;14.03;3.97;;;18.90;93.30;;;;;;5073750;28;20467;-59
2023/08/23 06:04:05;;;;;;;14.23;4.03;;;19.00;93.50;;;;;;5073648;28;20498;-58
2023/08/23 06:06:33;;;;;;;7.80;3.10;;;19.10;93.60;;;;;;5073306;28;20973;-58
2023/08/23 06:09:00;;;;;;;12.30;4.30;;;19.20;93.80;;;;;;5073558;28;20476;-58
2023/08/23 06:11:27;;;;;;;10.10;4.00;;;19.20;93.80;;;;;;5073835;28;20457;-59
2023/08/23 06:13:56;;;;;;;14.53;4.17;;;19.30;93.90;;;;;;5073402;28;20444;-58
2023/08/23 06:16:23;;;;;;;8.80;4.97;;;19.40;94.00;;;;;;5073534;28;20480;-58
2023/08/23 06:18:50;;;;;;;9.23;5.27;;;19.50;94.40;;;;;;5073474;28;20441;-58
2023/08/23 06:21:16;;;;;;;8.57;5.13;;;19.60;94.10;;;;;;5073348;28;20473;-58
2023/08/23 06:23:44;;;;;;;8.70;4.53;;;19.70;94.40;;;;;;5073418;28;20459;-58
2023/08/23 06:26:10;;;;;;;8.03;5.33;;;19.80;94.50;;;;;;5073432;28;20464;-58
2023/08/23 06:28:37;;;;;;;9.30;5.23;;;19.90;94.50;;;;;;5073415;28;20480;-58
2023/08/23 06:31:05;;;;;;;8.33;4.40;;;20.00;94.50;;;;;;5074565;28;20465;-58
2023/08/23 06:33:32;;;;;;;8.50;4.67;;;20.10;94.30;;;;;;5075678;28;20437;-58
2023/08/23 06:35:58;;;;;;;10.60;5.17;;;20.10;93.90;;;;;;5073563;28;20480;-58
2023/08/23 06:38:25;;;;;;;8.83;5.27;;;20.20;93.50;;;;;;5079412;28;20445;-58
2023/08/23 06:40:52;;;;;;;14.27;5.80;;;20.40;93.50;;;;;;5079949;28;20460;-58
2023/08/23 06:43:19;;;;;;;9.23;5.37;;;20.50;93.40;;;;;;5080263;28;20441;-58
2023/08/23 06:45:46;;;;;;;10.03;6.03;;;20.60;93.50;;;;;;5079666;28;20501;-58
2023/08/23 06:48:14;;;;;;;15.17;7.40;;;20.70;93.40;;;;;;5079877;28;20556;-58
2023/08/23 06:50:41;;;;;;;10.70;5.80;;;20.80;92.90;;;;;;5079744;28;20490;-59
2023/08/23 06:53:08;;;;;;;20.13;13.10;;;20.90;92.60;;;;;;5079871;28;20440;-58
2023/08/23 06:55:39;;;;;;;10.93;7.10;;;21.00;92.70;;;;;;5079356;28;21018;-58
2023/08/23 06:58:07;;;;;;;9.33;6.90;;;21.10;92.40;;;;;;5079828;28;20427;-59
2023/08/23 07:00:34;;;;;;;13.60;7.73;;;21.10;92.30;;;;;;5079626;28;20455;-59
2023/08/23 07:03:01;;;;;;;8.43;7.20;;;21.30;92.20;;;;;;5079738;28;20440;-59
2023/08/23 07:05:29;;;;;;;8.53;6.93;;;21.30;92.50;;;;;;5079799;28;20452;-58
2023/08/23 07:07:55;;;;;;;12.87;6.37;;;21.40;92.60;;;;;;5079457;28;20908;-58
2023/08/23 07:10:22;;;;;;;10.00;6.53;;;21.50;92.70;;;;;;5079756;28;20448;-58
2023/08/23 07:12:49;;;;;;;13.90;7.60;;;21.60;92.80;;;;;;5079741;28;20460;-59
2023/08/23 07:15:15;;;;;;;11.60;7.00;;;21.60;92.50;;;;;;5079629;28;20436;-58
2023/08/23 07:17:42;;;;;;;12.93;6.93;;;21.70;92.50;;;;;;5079679;28;20448;-59
2023/08/23 07:20:12;;;;;;;10.40;5.50;;;21.80;92.60;;;;;;5079608;28;20444;-58
2023/08/23 07:22:40;;;;;;;13.00;7.33;;;21.90;92.50;;;;;;5079104;28;20476;-58
2023/08/23 07:25:08;;;;;;;8.80;6.60;;;22.00;92.30;;;;;;5079555;28;20436;-59
2023/08/23 07:27:34;;;;;;;12.33;6.70;;;22.10;92.00;;;;;;5079575;28;20477;-59
2023/08/23 07:30:01;;;;;;;11.43;6.80;;;22.20;91.60;;;;;;5079421;28;20452;-59
2023/08/23 07:32:30;;;;;;;8.50;6.53;;;22.40;91.30;;;;;;5079139;28;21041;-59
2023/08/23 07:34:58;;;;;;;8.20;5.47;;;22.50;90.80;;;;;;5079362;28;20517;-59
2023/08/23 07:37:25;;;;;;;13.83;5.97;;;22.60;90.50;;;;;;5079298;28;20482;-59
2023/08/23 07:39:53;;;;;;;14.23;4.83;;;22.70;90.30;;;;;;5079323;28;20444;-59
2023/08/23 07:42:19;;;;;;;7.07;4.80;;;22.80;90.10;;;;;;5079255;28;20457;-59
2023/08/23 07:44:46;;;;;;;10.13;5.50;;;23.00;89.60;;;;;;5079107;28;20961;-59
2023/08/23 07:47:13;;;;;;;10.13;5.00;;;23.20;89.40;;;;;;5079364;28;20444;-59
2023/08/23 07:49:39;;;;;;;10.27;5.70;;;23.30;88.30;;;;;;5075812;28;20445;-59
2023/08/23 07:52:06;;;;;;;10.10;4.93;;;23.50;87.30;;;;;;5076062;28;20468;-59
2023/08/23 07:54:33;;;;;;;6.47;4.30;;;23.70;86.50;;;;;;5075789;28;20447;-60
2023/08/23 07:57:01;;;;;;;7.27;5.27;;;23.90;85.60;;;;;;5075944;28;20480;-59
2023/08/23 07:59:28;;;;;;;8.20;4.93;;;24.10;85.10;;;;;;5075926;28;20441;-59
2023/08/23 08:01:54;;;;;;;11.10;4.73;;;24.30;84.10;;;;;;5075862;28;20464;-59
2023/08/23 08:04:21;;;;;;;14.53;6.20;;;24.50;83.00;;;;;;5075554;28;20949;-59
2023/08/23 08:06:48;;;;;;;9.60;5.73;;;24.70;82.70;;;;;;5075927;28;20440;-59
2023/08/23 08:09:15;;;;;;;9.17;5.57;;;24.80;81.40;;;;;;5075866;28;20935;-60
2023/08/23 08:11:42;;;;;;;13.97;6.27;;;25.00;80.20;;;;;;5075867;28;20469;-59
2023/08/23 08:14:10;;;;;;;10.33;6.37;;;25.10;80.00;;;;;;5075443;28;21076;-59
2023/08/23 08:16:36;;;;;;;8.00;5.60;;;25.20;79.90;;;;;;5075725;28;20480;-59
2023/08/23 08:19:03;;;;;;;12.30;7.03;;;25.40;79.70;;;;;;5075759;28;20852;-59
2023/08/23 08:21:30;;;;;;;15.47;7.23;;;25.60;78.20;;;;;;5075260;28;20480;-59
2023/08/23 08:23:56;;;;;;;7.43;4.80;;;25.70;76.90;;;;;;5075506;28;20605;-59
2023/08/23 08:26:23;;;;;;;7.87;5.20;;;25.90;74.80;;;;;;5075510;28;20448;-59
2023/08/23 08:28:50;;;;;;;11.37;4.53;;;26.10;72.80;;;;;;5075478;28;20445;-59
2023/08/23 08:31:18;;;;;;;7.87;4.40;;;26.30;71.30;;;;;;5075299;28;20465;-59
2023/08/23 08:33:44;;;;;;;10.10;5.77;;;26.50;69.20;;;;;;5075267;28;20444;-59
2023/08/23 08:36:12;;;;;;;11.83;6.20;;;26.70;68.00;;;;;;5075207;28;20476;-59
2023/08/23 08:38:39;;;;;;;12.33;4.57;;;26.90;67.50;;;;;;5075207;28;20452;-59
2023/08/23 08:41:06;;;;;;;4.53;3.13;;;27.10;66.90;;;;;;5075198;28;20502;-59
2023/08/23 08:43:35;;;;;;;7.97;2.97;;;27.30;66.70;;;;;;5075801;28;20452;-59
2023/08/23 08:46:02;;;;;;;11.70;4.60;;;27.60;65.60;;;;;;5075973;28;20539;-59
2023/08/23 08:48:30;;;;;;;9.30;6.37;;;27.90;64.50;;;;;;5075543;28;20472;-59
2023/08/23 08:50:58;;;;;;;7.47;4.30;;;28.10;61.30;;;;;;5075796;28;20465;-59
2023/08/23 08:53:26;;;;;;;8.43;3.97;;;28.20;59.30;;;;;;5075114;28;20448;-59
2023/08/23 08:55:53;;;;;;;7.50;4.60;;;28.40;59.30;;;;;;5074955;28;20444;-59
2023/08/23 08:58:22;;;;;;;7.03;3.90;;;28.60;58.70;;;;;;5074874;28;20441;-59
2023/08/23 09:00:50;;;;;;;12.13;5.50;;;28.80;57.60;;;;;;5074684;28;20465;-59
2023/08/23 09:03:18;;;;;;;6.23;3.90;;;29.00;56.80;;;;;;5074881;28;20440;-59
2023/08/23 09:05:47;;;;;;;8.90;3.70;;;29.10;56.10;;;;;;5074365;28;20938;-59
2023/08/23 09:08:14;;;;;;;12.23;3.83;;;29.40;56.40;;;;;;5074724;28;20448;-59
2023/08/23 09:10:41;;;;;;;6.00;3.20;;;29.50;53.70;;;;;;5074565;28;20440;-59
2023/08/23 09:13:08;;;;;;;5.30;2.90;;;29.60;53.50;;;;;;5074302;28;20440;-59
2023/08/23 09:15:35;;;;;;;5.10;2.63;;;29.90;53.80;;;;;;5074501;28;20448;-59
2023/08/23 09:18:02;;;;;;;8.87;3.37;;;30.00;53.40;;;;;;5074130;28;21001;-59
2023/08/23 09:20:29;;;;;;;8.20;4.07;;;30.20;53.00;;;;;;5074352;28;20473;-59
2023/08/23 09:22:56;;;;;;;9.50;3.20;;;30.30;51.00;;;;;;5074063;28;20452;-59
2023/08/23 09:25:24;;;;;;;5.50;2.70;;;30.50;50.30;;;;;;5074813;28;20840;-59
2023/08/23 09:27:53;;;;;;;6.37;2.80;;;30.70;50.90;;;;;;5074309;28;20451;-59
2023/08/23 09:30:19;;;;;;;5.70;2.70;;;30.90;51.30;;;;;;5073923;28;20963;-59
2023/08/23 09:32:46;;;;;;;7.13;3.80;;;31.20;51.00;;;;;;5074083;28;20835;-59
2023/08/23 09:35:14;;;;;;;6.90;3.40;;;31.50;48.80;;;;;;5074146;28;20447;-59
2023/08/23 09:37:42;;;;;;;9.33;3.80;;;31.60;46.90;;;;;;5074805;28;20479;-59
2023/08/23 09:40:18;;;;;;;7.20;3.10;;;31.70;47.20;;;;;;5074098;28;20483;-59
2023/08/23 09:42:45;;;;;;;5.73;3.03;;;31.80;45.90;;;;;;5073913;28;20472;-59
2023/08/23 09:45:16;;;;;;;5.80;3.27;;;32.00;45.80;;;;;;5074016;28;20444;-59
2023/08/23 09:47:50;;;;;;;6.87;2.27;;;32.10;45.10;;;;;;5073959;28;20428;-59
2023/08/23 09:50:18;;;;;;;6.20;2.60;;;32.40;45.60;;;;;;5073940;28;20432;-59
2023/08/23 09:52:49;;;;;;;6.97;2.60;;;32.70;46.00;;;;;;5073819;28;20452;-59
2023/08/23 09:55:18;;;;;;;8.47;2.67;;;33.00;45.20;;;;;;5073899;28;20431;-59
2023/08/23 09:57:45;;;;;;;4.30;2.57;;;33.30;43.40;;;;;;5073652;28;20480;-59
2023/08/23 10:00:12;;;;;;;12.07;4.03;;;33.50;42.30;;;;;;5073899;28;20518;-59
2023/08/23 10:02:41;;;;;;;5.97;3.00;;;33.50;39.50;;;;;;5073677;28;20456;-59
2023/08/23 10:05:11;;;;;;;12.00;3.40;;;33.50;39.80;;;;;;5073629;28;20469;-59
2023/08/23 10:07:39;;;;;;;9.93;4.47;;;33.80;40.90;;;;;;5073728;28;20511;-59
2023/08/23 10:10:07;;;;;;;7.67;3.30;;;34.00;40.70;;;;;;5073777;28;20474;-59
2023/08/23 10:12:38;;;;;;;5.27;3.63;;;34.20;40.50;;;;;;5072958;28;20986;-59
2023/08/23 10:15:08;;;;;;;6.70;3.40;;;34.50;39.20;;;;;;5073789;28;20427;-59
2023/08/23 10:17:36;;;;;;;4.53;2.83;;;34.80;38.30;;;;;;5073398;28;20566;-59
2023/08/23 10:20:05;;;;;;;7.83;3.37;;;35.10;38.90;;;;;;5073193;28;20695;-59
2023/08/23 10:22:32;;;;;;;9.00;3.97;;;35.50;37.70;;;;;;5073092;28;20236;-59
2023/08/23 10:24:58;;;;;;;8.57;3.93;;;35.90;36.00;;;;;;5073513;28;20206;-59
2023/08/23 10:27:25;;;;;;;13.43;4.85;;;36.00;35.40;;;;;;5073412;28;20201;-59
2023/08/23 10:29:53;;;;;;;8.95;3.55;;;36.20;34.20;;;;;;5073378;28;20206;-59
2023/08/23 10:32:20;;;;;;;10.15;3.20;;;36.40;34.50;;;;;;5073459;28;20225;-59
2023/08/23 10:34:47;;;;;;;8.07;3.15;;;36.60;33.50;;;;;;5072982;28;20694;-59
2023/08/23 10:37:15;;;;;;;7.03;3.92;;;36.80;33.60;;;;;;5072966;28;20696;-59
2023/08/23 10:39:48;;;;;;;4.55;2.88;;;36.90;33.10;;;;;;5073230;28;20240;-59
2023/08/23 10:42:15;;;;;;;8.02;2.80;;;36.60;32.50;;;;;;5072977;28;20711;-59
2023/08/23 10:44:53;;;;;;;10.45;2.70;;;36.30;33.20;;;;;;5073227;28;20206;-59
2023/08/23 10:47:22;;;;;;;7.60;3.40;;;36.40;33.80;;;;;;5073243;28;20228;-59
2023/08/23 10:49:50;;;;;;;7.35;2.65;;;36.80;32.20;;;;;;5073205;28;20205;-59
2023/08/23 10:52:17;;;;;;;7.88;2.58;;;37.10;31.50;;;;;;5072843;28;20719;-59
2023/08/23 10:54:44;;;;;;;7.07;2.88;;;37.20;31.40;;;;;;5073151;28;20617;-59
2023/08/23 10:57:10;;;;;;;12.25;3.28;;;37.60;32.30;;;;;;5072977;28;20221;-59
2023/08/23 10:59:37;;;;;;;9.07;3.30;;;38.10;31.30;;;;;;5073111;28;20202;-59
2023/08/23 11:02:04;;;;;;;6.65;2.88;;;38.60;29.70;;;;;;5073039;28;20218;-59
2023/08/23 11:04:32;;;;;;;6.45;2.70;;;38.70;29.40;;;;;;5072952;28;20209;-59
2023/08/23 11:06:59;;;;;;;8.20;2.40;;;39.00;29.20;;;;;;5072976;28;20201;-59
2023/08/23 11:09:26;;;;;;;7.57;2.90;;;39.00;28.70;;;;;;5073006;28;20205;-59
2023/08/23 11:11:53;;;;;;;7.75;2.28;;;39.40;29.50;;;;;;5073119;28;20225;-58
2023/08/23 11:14:20;;;;;;;5.38;3.00;;;39.80;28.30;;;;;;5072638;28;20696;-58
2023/08/23 11:16:46;;;;;;;4.88;2.38;;;40.00;27.60;;;;;;5072859;28;20206;-58
2023/08/23 11:19:13;;;;;;;6.78;2.40;;;39.90;27.00;;;;;;5072588;28;20197;-59
2023/08/23 11:21:42;;;;;;;3.35;2.70;;;40.10;27.70;;;;;;5072514;28;20316;-59
2023/08/23 11:24:08;;;;;;;5.68;2.55;;;40.30;26.20;;;;;;5073914;28;20201;-59
2023/08/23 11:26:35;;;;;;;6.45;2.70;;;40.60;26.20;;;;;;5076596;28;20209;-60
2023/08/23 11:29:02;;;;;;;5.32;2.47;;;40.80;26.80;;;;;;5076506;28;20580;-59
2023/08/23 11:31:30;;;;;;;4.15;3.17;;;40.70;27.20;;;;;;5076151;28;20710;-60
2023/08/23 11:33:57;;;;;;;4.72;2.53;;;40.30;27.80;;;;;;5076467;28;20241;-59
2023/08/23 11:36:24;;;;;;;5.25;2.75;;;39.80;27.20;;;;;;5076425;28;20198;-59
2023/08/23 11:38:52;;;;;;;4.15;2.40;;;39.40;26.20;;;;;;5076289;28;20233;-59
2023/08/23 11:41:28;;;;;;;5.45;2.90;;;39.20;26.30;;;;;;5076152;28;20218;-59
2023/08/23 11:43:55;;;;;;;2.70;2.28;;;38.80;26.90;;;;;;5076419;28;20213;-59
2023/08/23 11:46:22;;;;;;;5.38;3.08;;;38.80;27.80;;;;;;5077166;28;20236;-59
2023/08/23 11:48:48;;;;;;;3.30;3.00;;;38.90;25.70;;;;;;5078117;28;20208;-59
2023/08/23 11:51:16;;;;;;;3.42;3.13;;;39.20;26.10;;;;;;5076621;28;20267;-59
2023/08/23 11:53:53;;;;;;;7.57;3.67;;;39.70;26.80;;;;;;5076629;28;20209;-58
2023/08/23 11:56:21;;;;;;;5.45;3.50;;;40.10;26.00;;;;;;5076436;28;20220;-58
2023/08/23 11:58:48;;;;;;;8.80;3.50;;;40.30;25.80;;;;;;5076112;28;20264;-58
2023/08/23 12:01:14;;;;;;;5.88;3.63;;;40.50;25.60;;;;;;5076152;28;20221;-59
2023/08/23 12:03:41;;;;;;;4.28;3.88;;;40.90;25.80;;;;;;5076115;28;20206;-59
2023/08/23 12:06:08;;;;;;;5.55;3.85;;;41.60;25.40;;;;;;5075687;28;20290;-59
2023/08/23 12:08:34;;;;;;;4.18;3.63;;;42.10;23.80;;;;;;5075979;28;20224;-59
2023/08/23 12:11:03;;;;;;;5.93;4.05;;;42.60;23.50;;;;;;5075862;28;20248;-59
2023/08/23 12:13:29;;;;;;;3.97;3.28;;;42.90;20.80;;;;;;5075516;28;20572;-59
2023/08/23 12:15:56;;;;;;;4.40;4.00;;;42.30;20.10;;;;;;5075674;28;20680;-59
2023/08/23 12:18:23;;;;;;;4.00;3.60;;;42.10;20.00;;;;;;5075455;28;20691;-59
2023/08/23 12:20:50;;;;;;;4.32;3.92;;;42.20;20.70;;;;;;5075492;28;20228;-59
2023/08/23 12:23:17;;;;;;;6.03;5.10;;;42.50;20.40;;;;;;5076323;28;20198;-59
2023/08/23 12:25:44;;;;;;;4.55;4.15;;;42.80;21.30;;;;;;5075285;28;20328;-60
2023/08/23 12:28:14;;;;;;;6.70;4.30;;;43.20;20.00;;;;;;5075826;28;20202;-61
2023/08/23 12:30:41;;;;;;;5.65;4.25;;;43.30;18.80;;;;;;5075441;28;20288;-60
2023/08/23 12:33:07;;;;;;;4.95;4.45;;;43.50;19.50;;;;;;5075895;28;20206;-60
2023/08/23 12:35:34;;;;;;;9.10;3.90;;;43.80;19.10;;;;;;5074908;28;20209;-60
2023/08/23 12:38:01;;;;;;;4.05;3.65;;;44.00;19.50;;;;;;5075216;28;20228;-60
2023/08/23 12:40:28;;;;;;;4.38;4.03;;;44.40;19.20;;;;;;5075445;28;20202;-59
2023/08/23 12:42:54;;;;;;;5.25;4.68;;;44.90;18.80;;;;;;5075244;28;20197;-60
2023/08/23 12:45:22;;;;;;;5.57;4.75;;;45.40;18.20;;;;;;5075416;28;20206;-60